createdAt,value
2023-01-28T00:01:39.355Z,11.80
2023-01-28T00:04:06.192Z,11.17
2023-01-28T00:06:33.044Z,10.73
2023-01-28T00:08:59.763Z,11.60
2023-01-28T00:11:30.613Z,11.40
2023-01-28T00:13:57.481Z,10.47
2023-01-28T00:16:24.403Z,11.10
2023-01-28T00:18:51.828Z,10.67
2023-01-28T00:21:18.667Z,10.07
2023-01-28T00:23:54.290Z,11.33
2023-01-28T00:26:22.567Z,9.97
2023-01-28T00:28:49.470Z,10.97
2023-01-28T00:31:21.964Z,9.80
2023-01-28T00:33:50.651Z,10.37
2023-01-28T00:36:18.760Z,9.97
2023-01-28T00:38:53.461Z,10.37
2023-01-28T00:41:22.066Z,10.60
2023-01-28T00:43:51.098Z,10.50
2023-01-28T00:46:18.827Z,10.33
2023-01-28T00:48:46.011Z,9.93
2023-01-28T00:51:14.995Z,9.47
2023-01-28T00:53:42.901Z,10.13
2023-01-28T00:56:14.007Z,10.07
2023-01-28T00:58:41.212Z,9.80
2023-01-28T01:01:23.750Z,10.37
2023-01-28T01:04:02.461Z,9.37
2023-01-28T01:06:36.628Z,10.10
2023-01-28T01:09:10.687Z,9.80
2023-01-28T01:11:37.755Z,9.93
2023-01-28T01:14:05.394Z,9.77
2023-01-28T01:16:33.568Z,9.67
2023-01-28T01:19:00.926Z,10.13
2023-01-28T01:21:29.774Z,9.80
2023-01-28T01:23:57.208Z,10.00
2023-01-28T01:26:24.487Z,10.37
2023-01-28T01:28:52.235Z,10.00
2023-01-28T01:31:21.532Z,9.67
2023-01-28T01:33:49.875Z,10.10
2023-01-28T01:36:18.492Z,9.47
2023-01-28T01:38:45.544Z,9.63
2023-01-28T01:41:30.716Z,9.67
2023-01-28T01:44:03.235Z,9.37
2023-01-28T01:46:44.001Z,9.50
2023-01-28T01:49:23.996Z,9.07
2023-01-28T01:52:02.822Z,8.93
2023-01-28T01:54:34.129Z,9.77
2023-01-28T01:57:03.154Z,9.80
2023-01-28T01:59:33.169Z,10.20
2023-01-28T02:02:07.575Z,9.43
2023-01-28T02:04:44.730Z,9.60
2023-01-28T02:07:18.636Z,9.37
2023-01-28T02:09:45.419Z,9.40
2023-01-28T02:12:17.045Z,9.53
2023-01-28T02:15:09.296Z,9.50
2023-01-28T02:17:37.616Z,8.83
2023-01-28T02:20:11.014Z,9.40
2023-01-28T02:22:47.670Z,10.30
2023-01-28T02:25:36.252Z,9.73
2023-01-28T02:28:22.898Z,8.97
2023-01-28T02:31:18.840Z,9.83
2023-01-28T02:34:17.812Z,9.53
2023-01-28T02:36:56.399Z,9.13
2023-01-28T02:39:27.288Z,9.63
2023-01-28T02:42:09.457Z,8.90
2023-01-28T02:44:36.309Z,9.03
2023-01-28T02:47:21.629Z,9.10
2023-01-28T02:49:48.352Z,9.47
2023-01-28T02:52:51.011Z,9.03
2023-01-28T02:55:45.240Z,9.23
2023-01-28T02:58:46.880Z,9.40
2023-01-28T03:01:39.027Z,9.33
2023-01-28T03:04:20.723Z,9.27
2023-01-28T03:06:54.827Z,9.50
2023-01-28T03:09:23.198Z,9.03
2023-01-28T03:12:11.042Z,9.73
2023-01-28T03:14:57.895Z,10.10
2023-01-28T03:17:51.004Z,9.63
2023-01-28T03:20:39.227Z,9.23
2023-01-28T03:23:33.031Z,9.07
2023-01-28T03:26:22.007Z,10.33
2023-01-28T03:29:08.930Z,9.07
2023-01-28T03:31:55.924Z,8.80
2023-01-28T03:34:41.858Z,8.63
2023-01-28T03:37:09.771Z,9.90
2023-01-28T03:39:38.630Z,9.00
2023-01-28T03:42:08.009Z,9.10
2023-01-28T03:44:53.531Z,10.03
2023-01-28T03:47:25.958Z,9.63
2023-01-28T03:49:55.534Z,9.53
2023-01-28T03:52:26.066Z,10.53
2023-01-28T03:55:01.044Z,9.60
2023-01-28T03:57:31.293Z,10.13
2023-01-28T03:59:58.145Z,9.77
2023-01-28T04:02:26.911Z,9.93
2023-01-28T04:04:53.848Z,9.67
2023-01-28T04:07:20.700Z,9.67
2023-01-28T04:10:10.931Z,12.83
2023-01-28T04:12:51.303Z,10.87
2023-01-28T04:15:19.587Z,10.60
2023-01-28T04:17:48.749Z,10.20
2023-01-28T04:20:22.900Z,9.57
2023-01-28T04:22:49.705Z,9.47
2023-01-28T04:25:17.275Z,9.13
2023-01-28T04:27:44.267Z,9.20
2023-01-28T04:30:21.157Z,8.87
2023-01-28T04:33:14.651Z,8.50
2023-01-28T04:36:20.280Z,8.67
2023-01-28T04:39:06.435Z,8.67
2023-01-28T04:41:44.899Z,8.60
2023-01-28T04:44:20.918Z,8.37
2023-01-28T04:47:16.311Z,8.73
2023-01-28T04:50:05.274Z,8.10
2023-01-28T04:52:38.286Z,8.27
2023-01-28T04:55:27.820Z,8.90
2023-01-28T04:57:54.844Z,7.97
2023-01-28T05:00:21.916Z,8.23
2023-01-28T05:02:48.817Z,8.60
2023-01-28T05:05:16.027Z,8.13
2023-01-28T05:07:56.191Z,8.40
2023-01-28T05:10:24.161Z,8.53
2023-01-28T05:12:51.286Z,8.20
2023-01-28T05:15:19.891Z,8.20
2023-01-28T05:17:48.114Z,8.57
2023-01-28T05:20:17.704Z,8.67
2023-01-28T05:22:46.846Z,8.80
2023-01-28T05:25:20.385Z,8.90
2023-01-28T05:27:51.643Z,8.67
2023-01-28T05:30:19.718Z,8.13
2023-01-28T05:32:46.801Z,8.50
2023-01-28T05:35:16.603Z,8.37
2023-01-28T05:37:44.253Z,8.87
2023-01-28T05:40:12.318Z,8.67
2023-01-28T05:42:39.236Z,7.93
2023-01-28T05:45:35.942Z,8.40
2023-01-28T05:48:09.953Z,8.63
2023-01-28T05:51:05.289Z,8.80
2023-01-28T05:53:34.988Z,9.40
2023-01-28T05:56:02.174Z,8.93
2023-01-28T05:58:32.138Z,8.60
2023-01-28T06:01:02.229Z,8.90
2023-01-28T06:03:37.413Z,10.37
2023-01-28T06:06:04.438Z,8.93
2023-01-28T06:08:31.763Z,9.27
2023-01-28T06:10:59.443Z,9.63
2023-01-28T06:13:26.622Z,9.73
2023-01-28T06:16:24.826Z,9.90
2023-01-28T06:19:00.229Z,9.30
2023-01-28T06:21:29.648Z,8.27
2023-01-28T06:23:57.957Z,8.70
2023-01-28T06:26:24.769Z,8.87
2023-01-28T06:28:51.768Z,9.30
2023-01-28T06:31:19.129Z,9.10
2023-01-28T06:33:46.145Z,8.77
2023-01-28T06:36:13.075Z,9.33
2023-01-28T06:38:39.785Z,9.87
2023-01-28T06:41:06.586Z,9.60
2023-01-28T06:43:33.655Z,9.90
2023-01-28T06:46:01.001Z,9.53
2023-01-28T06:48:28.399Z,9.60
2023-01-28T06:50:55.364Z,10.30
2023-01-28T06:53:22.227Z,9.73
2023-01-28T06:55:49.077Z,9.93
2023-01-28T06:58:15.832Z,10.27
2023-01-28T07:00:42.612Z,9.43
2023-01-28T07:03:09.500Z,10.90
2023-01-28T07:05:36.271Z,10.50
2023-01-28T07:08:03.271Z,9.83
2023-01-28T07:10:30.245Z,10.23
2023-01-28T07:12:57.142Z,10.07
2023-01-28T07:15:23.886Z,10.30
2023-01-28T07:17:50.646Z,10.70
2023-01-28T07:20:17.934Z,10.53
2023-01-28T07:22:45.524Z,11.23
2023-01-28T07:25:13.834Z,11.13
2023-01-28T07:27:47.086Z,10.67
2023-01-28T07:30:14.819Z,11.13
2023-01-28T07:32:41.788Z,10.90
2023-01-28T07:35:08.835Z,10.73
2023-01-28T07:37:35.610Z,10.53
2023-01-28T07:40:02.549Z,10.40
2023-01-28T07:42:29.365Z,11.20
2023-01-28T07:44:56.161Z,10.63
2023-01-28T07:47:23.060Z,10.80
2023-01-28T07:49:49.802Z,10.47
2023-01-28T07:52:16.533Z,10.23
2023-01-28T07:54:43.274Z,11.27
2023-01-28T07:57:10.148Z,10.60
2023-01-28T07:59:36.949Z,10.17
2023-01-28T08:02:03.906Z,11.60
2023-01-28T08:04:30.781Z,12.33
2023-01-28T08:06:57.779Z,11.67
2023-01-28T08:09:24.728Z,12.80
2023-01-28T08:11:51.678Z,12.83
2023-01-28T08:14:18.429Z,12.90
2023-01-28T08:16:45.134Z,12.80
2023-01-28T08:19:11.875Z,15.90
2023-01-28T08:21:38.625Z,15.47
2023-01-28T08:24:05.831Z,14.13
2023-01-28T08:26:32.698Z,15.57
2023-01-28T08:28:59.522Z,16.03
2023-01-28T08:31:27.275Z,14.67
2023-01-28T08:33:54.017Z,18.67
2023-01-28T08:36:21.049Z,15.87
2023-01-28T08:38:54.063Z,16.57
2023-01-28T08:41:22.504Z,15.90
2023-01-28T08:43:49.406Z,16.40
2023-01-28T08:46:16.682Z,15.50
2023-01-28T08:48:44.259Z,14.30
2023-01-28T08:51:11.052Z,14.97
2023-01-28T08:53:37.902Z,15.57
2023-01-28T08:56:04.950Z,13.80
2023-01-28T08:58:31.765Z,15.17
2023-01-28T09:00:58.534Z,14.13
2023-01-28T09:03:25.436Z,13.70
2023-01-28T09:05:52.227Z,13.67
2023-01-28T09:08:25.220Z,14.50
2023-01-28T09:10:56.618Z,14.00
2023-01-28T09:13:24.055Z,14.17
2023-01-28T09:15:51.301Z,14.30
2023-01-28T09:18:18.629Z,14.67
2023-01-28T09:20:45.888Z,14.30
2023-01-28T09:23:13.336Z,13.50
2023-01-28T09:25:40.202Z,13.67
2023-01-28T09:28:07.669Z,13.50
2023-01-28T09:30:37.309Z,13.53
2023-01-28T09:33:04.411Z,15.00
2023-01-28T09:35:31.374Z,16.13
2023-01-28T09:37:59.044Z,15.33
2023-01-28T09:40:42.578Z,14.57
2023-01-28T09:43:46.682Z,14.17
2023-01-28T09:46:15.447Z,13.63
2023-01-28T09:48:46.558Z,13.93
2023-01-28T09:51:28.506Z,14.17
2023-01-28T09:53:59.796Z,13.93
2023-01-28T09:56:30.988Z,15.03
2023-01-28T09:59:20.377Z,14.13
2023-01-28T10:02:20.528Z,15.30
2023-01-28T10:05:05.910Z,14.63
2023-01-28T10:08:10.335Z,14.77
2023-01-28T10:10:50.142Z,14.77
2023-01-28T10:13:28.151Z,15.37
2023-01-28T10:16:17.179Z,14.77
2023-01-28T10:18:58.424Z,14.47
2023-01-28T10:21:32.708Z,14.40
2023-01-28T10:24:13.652Z,14.20
2023-01-28T10:26:42.489Z,13.60
2023-01-28T10:29:17.637Z,13.23
2023-01-28T10:32:14.763Z,13.43
2023-01-28T10:34:41.788Z,12.83
2023-01-28T10:37:13.109Z,12.53
2023-01-28T10:39:40.102Z,12.73
2023-01-28T10:42:29.470Z,12.87
2023-01-28T10:45:03.429Z,12.97
2023-01-28T10:47:41.016Z,13.40
2023-01-28T10:50:20.605Z,13.50
2023-01-28T10:53:02.403Z,12.63
2023-01-28T10:55:41.227Z,12.87
2023-01-28T10:58:20.501Z,13.87
2023-01-28T11:01:07.532Z,12.70
2023-01-28T11:03:37.203Z,12.67
2023-01-28T11:06:04.282Z,13.70
2023-01-28T11:08:31.774Z,13.13
2023-01-28T11:10:58.800Z,13.33
2023-01-28T11:13:28.500Z,13.67
2023-01-28T11:16:01.765Z,13.53
2023-01-28T11:18:54.679Z,13.60
2023-01-28T11:21:31.333Z,13.03
2023-01-28T11:24:22.097Z,12.53
2023-01-28T11:26:52.204Z,12.33
2023-01-28T11:29:34.383Z,12.93
2023-01-28T11:32:02.092Z,12.37
2023-01-28T11:34:34.175Z,13.43
2023-01-28T11:37:13.493Z,12.83
2023-01-28T11:39:40.289Z,13.27
2023-01-28T11:42:25.322Z,13.57
2023-01-28T11:44:52.064Z,14.17
2023-01-28T11:47:34.067Z,14.07
2023-01-28T11:50:25.656Z,13.43
2023-01-28T11:53:36.373Z,15.17
2023-01-28T11:56:08.997Z,13.93
2023-01-28T11:59:13.946Z,14.40
2023-01-28T12:01:55.690Z,15.20
2023-01-28T12:04:43.524Z,14.07
2023-01-28T12:07:32.386Z,14.20
2023-01-28T12:10:14.651Z,13.63
2023-01-28T12:12:50.559Z,13.93
2023-01-28T12:15:23.353Z,13.00
2023-01-28T12:18:04.432Z,13.77
2023-01-28T12:21:10.808Z,14.70
2023-01-28T12:23:54.055Z,13.13
2023-01-28T12:26:20.779Z,14.23
2023-01-28T12:29:25.877Z,13.47
2023-01-28T12:32:39.201Z,13.03
2023-01-28T12:35:35.397Z,13.27
2023-01-28T12:38:14.529Z,12.77
2023-01-28T12:40:50.925Z,12.23
2023-01-28T12:43:52.853Z,12.47
2023-01-28T12:46:29.078Z,12.67
2023-01-28T12:49:23.020Z,12.87
2023-01-28T12:51:57.153Z,12.47
2023-01-28T12:54:27.519Z,12.40
2023-01-28T12:56:55.659Z,11.30
2023-01-28T12:59:29.815Z,10.83
2023-01-28T13:02:21.413Z,10.10
2023-01-28T13:04:53.886Z,11.70
2023-01-28T13:07:38.418Z,10.97
2023-01-28T13:10:29.328Z,10.70
2023-01-28T13:12:57.400Z,13.70
2023-01-28T13:15:24.800Z,10.03
2023-01-28T13:18:29.683Z,10.50
2023-01-28T13:20:56.571Z,9.53
2023-01-28T13:23:46.402Z,9.57
2023-01-28T13:26:19.613Z,10.77
2023-01-28T13:28:48.440Z,11.57
2023-01-28T13:31:17.954Z,10.77
2023-01-28T13:34:01.532Z,10.03
2023-01-28T13:36:37.105Z,10.03
2023-01-28T13:39:19.935Z,9.47
2023-01-28T13:41:50.290Z,10.17
2023-01-28T13:44:26.244Z,10.20
2023-01-28T13:46:58.593Z,10.13
2023-01-28T13:49:42.429Z,10.47
2023-01-28T13:52:12.143Z,11.17
2023-01-28T13:54:44.230Z,10.20
2023-01-28T13:57:36.069Z,10.63
2023-01-28T14:00:26.129Z,10.10
2023-01-28T14:03:08.607Z,10.57
2023-01-28T14:06:03.011Z,10.50
2023-01-28T14:08:57.655Z,10.20
2023-01-28T14:11:40.958Z,9.80
2023-01-28T14:14:39.576Z,9.33
2023-01-28T14:17:21.252Z,9.73
2023-01-28T14:19:50.037Z,9.83
2023-01-28T14:22:20.446Z,10.30
2023-01-28T14:24:48.244Z,10.17
2023-01-28T14:27:26.694Z,10.30
2023-01-28T14:30:07.303Z,10.20
2023-01-28T14:32:35.121Z,9.87
2023-01-28T14:35:08.632Z,9.93
2023-01-28T14:37:35.724Z,9.27
2023-01-28T14:40:14.825Z,9.53
2023-01-28T14:42:46.189Z,9.87
2023-01-28T14:45:37.521Z,9.77
2023-01-28T14:48:29.027Z,9.43
2023-01-28T14:51:10.900Z,9.33
2023-01-28T14:54:21.963Z,9.13
2023-01-28T14:57:07.301Z,9.23
2023-01-28T14:59:44.217Z,9.40
2023-01-28T15:02:22.150Z,8.87
2023-01-28T15:04:50.295Z,9.00
2023-01-28T15:07:26.114Z,8.90
2023-01-28T15:10:03.449Z,8.47
2023-01-28T15:12:35.074Z,8.13
2023-01-28T15:15:16.078Z,8.50
2023-01-28T15:17:43.184Z,7.60
2023-01-28T15:20:16.414Z,7.37
2023-01-28T15:22:43.460Z,7.80
2023-01-28T15:25:21.698Z,8.03
2023-01-28T15:27:50.577Z,7.93
2023-01-28T15:30:27.081Z,7.80
2023-01-28T15:33:11.461Z,7.27
2023-01-28T15:35:38.364Z,6.87
2023-01-28T15:38:05.616Z,7.27
2023-01-28T15:40:42.601Z,6.93
2023-01-28T15:43:19.740Z,7.37
2023-01-28T15:45:48.558Z,7.03
2023-01-28T15:48:16.480Z,6.67
2023-01-28T15:50:44.747Z,6.67
2023-01-28T15:53:14.252Z,6.83
2023-01-28T15:55:44.410Z,7.07
2023-01-28T15:58:29.937Z,7.17
2023-01-28T16:01:09.008Z,6.60
2023-01-28T16:03:39.542Z,6.73
2023-01-28T16:06:15.436Z,6.50
2023-01-28T16:08:53.037Z,7.07
2023-01-28T16:11:35.235Z,6.60
2023-01-28T16:14:02.183Z,6.30
2023-01-28T16:16:33.110Z,6.43
2023-01-28T16:19:01.567Z,6.30
2023-01-28T16:21:33.725Z,6.27
2023-01-28T16:24:25.179Z,6.10
2023-01-28T16:27:00.572Z,6.30
2023-01-28T16:29:30.609Z,6.27
2023-01-28T16:31:59.903Z,6.20
2023-01-28T16:34:29.901Z,5.97
2023-01-28T16:36:59.510Z,6.00
2023-01-28T16:39:26.445Z,5.53
2023-01-28T16:41:53.966Z,5.60
2023-01-28T16:44:20.698Z,5.40
2023-01-28T16:46:47.511Z,5.27
2023-01-28T16:49:14.300Z,5.30
2023-01-28T16:51:43.952Z,5.83
2023-01-28T16:54:15.909Z,6.33
2023-01-28T16:56:46.226Z,5.70
2023-01-28T16:59:15.697Z,5.60
2023-01-28T17:01:43.862Z,6.00
2023-01-28T17:04:12.724Z,5.70
2023-01-28T17:06:44.777Z,6.00
2023-01-28T17:09:13.527Z,6.77
2023-01-28T17:11:41.045Z,6.10
2023-01-28T17:14:08.784Z,6.37
2023-01-28T17:16:35.849Z,6.13
2023-01-28T17:19:02.729Z,6.00
2023-01-28T17:21:29.503Z,6.13
2023-01-28T17:23:58.192Z,5.63
2023-01-28T17:26:25.818Z,6.27
2023-01-28T17:28:53.667Z,7.10
2023-01-28T17:31:21.629Z,7.27
2023-01-28T17:33:54.181Z,7.03
2023-01-28T17:36:21.272Z,6.57
2023-01-28T17:38:48.638Z,6.43
2023-01-28T17:41:17.330Z,6.57
2023-01-28T17:43:49.447Z,6.30
2023-01-28T17:46:17.334Z,6.57
2023-01-28T17:48:45.676Z,6.87
2023-01-28T17:51:13.876Z,6.60
2023-01-28T17:53:44.727Z,7.23
2023-01-28T17:56:18.975Z,6.27
2023-01-28T17:58:50.640Z,6.80
2023-01-28T18:01:17.559Z,7.13
2023-01-28T18:03:44.355Z,6.67
2023-01-28T18:06:11.209Z,6.33
2023-01-28T18:08:37.978Z,6.53
2023-01-28T18:11:11.767Z,7.07
2023-01-28T18:13:39.426Z,7.00
2023-01-28T18:16:08.094Z,6.73
2023-01-28T18:18:35.085Z,7.10
2023-01-28T18:21:05.954Z,6.70
2023-01-28T18:23:33.503Z,7.13
2023-01-28T18:26:03.467Z,6.30
2023-01-28T18:28:30.812Z,6.43
2023-01-28T18:31:05.296Z,7.23
2023-01-28T18:33:32.113Z,6.37
2023-01-28T18:35:58.992Z,6.77
2023-01-28T18:38:25.927Z,6.97
2023-01-28T18:40:56.434Z,6.57
2023-01-28T18:43:23.418Z,6.90
2023-01-28T18:45:52.099Z,7.00
2023-01-28T18:48:19.099Z,6.93
2023-01-28T18:50:54.002Z,7.40
2023-01-28T18:53:26.059Z,7.17
2023-01-28T18:55:53.942Z,7.17
2023-01-28T18:58:20.725Z,7.70
2023-01-28T19:00:47.529Z,7.30
2023-01-28T19:03:14.380Z,7.80
2023-01-28T19:05:42.076Z,7.83
2023-01-28T19:08:09.557Z,8.13
2023-01-28T19:10:36.568Z,8.50
2023-01-28T19:13:03.548Z,8.23
2023-01-28T19:15:30.899Z,7.87
2023-01-28T19:17:57.695Z,8.27
2023-01-28T19:20:24.586Z,8.40
2023-01-28T19:22:51.399Z,8.23
2023-01-28T19:25:18.719Z,8.10
2023-01-28T19:27:45.454Z,8.37
2023-01-28T19:30:12.437Z,8.20
2023-01-28T19:32:39.262Z,7.70
2023-01-28T19:35:07.165Z,8.23
2023-01-28T19:37:33.929Z,8.33
2023-01-28T19:40:00.677Z,8.00
2023-01-28T19:42:27.424Z,8.27
2023-01-28T19:44:54.199Z,8.50
2023-01-28T19:47:21.228Z,8.93
2023-01-28T19:49:47.975Z,8.87
2023-01-28T19:52:14.676Z,8.33
2023-01-28T19:54:41.524Z,8.43
2023-01-28T19:57:08.242Z,8.40
2023-01-28T19:59:34.989Z,7.97
2023-01-28T20:02:01.719Z,8.70
2023-01-28T20:04:28.460Z,8.50
2023-01-28T20:06:55.212Z,7.97
2023-01-28T20:09:22.034Z,7.70
2023-01-28T20:11:48.766Z,7.27
2023-01-28T20:14:17.923Z,8.00
2023-01-28T20:16:44.672Z,8.30
2023-01-28T20:19:19.083Z,7.97
2023-01-28T20:21:46.787Z,7.60
2023-01-28T20:24:14.744Z,8.30
2023-01-28T20:26:43.250Z,8.40
2023-01-28T20:29:17.634Z,8.93
2023-01-28T20:31:44.699Z,8.93
2023-01-28T20:34:18.601Z,8.50
2023-01-28T20:36:45.861Z,8.00
2023-01-28T20:39:13.733Z,8.23
2023-01-28T20:41:40.569Z,8.03
2023-01-28T20:44:07.540Z,8.73
2023-01-28T20:46:36.495Z,8.63
2023-01-28T20:49:06.059Z,8.60
2023-01-28T20:51:35.739Z,8.23
2023-01-28T20:54:02.856Z,8.70
2023-01-28T20:56:31.085Z,8.40
2023-01-28T20:59:01.148Z,9.10
2023-01-28T21:01:31.028Z,8.70
2023-01-28T21:03:57.940Z,8.43
2023-01-28T21:06:25.616Z,9.37
2023-01-28T21:08:56.898Z,8.37
2023-01-28T21:11:24.540Z,8.77
2023-01-28T21:13:51.315Z,8.67
2023-01-28T21:16:18.309Z,8.57
2023-01-28T21:18:45.525Z,9.20
2023-01-28T21:21:24.107Z,8.40
2023-01-28T21:23:54.515Z,9.03
2023-01-28T21:26:21.709Z,9.80
2023-01-28T21:28:48.526Z,9.10
2023-01-28T21:31:18.643Z,9.60
2023-01-28T21:33:49.868Z,9.87
2023-01-28T21:36:18.275Z,9.57
2023-01-28T21:38:45.873Z,9.90
2023-01-28T21:41:12.641Z,9.70
2023-01-28T21:43:39.407Z,9.50
2023-01-28T21:46:06.239Z,9.80
2023-01-28T21:48:33.148Z,9.40
2023-01-28T21:51:25.935Z,9.13
2023-01-28T21:53:53.128Z,9.30
2023-01-28T21:56:20.082Z,9.40
2023-01-28T21:59:05.369Z,9.50
2023-01-28T22:01:32.183Z,9.07
2023-01-28T22:03:59.094Z,9.60
2023-01-28T22:06:25.852Z,8.60
2023-01-28T22:08:53.298Z,9.10
2023-01-28T22:11:20.598Z,9.37
2023-01-28T22:13:47.718Z,9.13
2023-01-28T22:16:14.520Z,9.13
2023-01-28T22:18:41.299Z,9.40
2023-01-28T22:21:11.030Z,9.80
2023-01-28T22:23:37.823Z,10.43
2023-01-28T22:26:04.706Z,9.73
2023-01-28T22:28:31.707Z,9.47
2023-01-28T22:31:09.741Z,8.87
2023-01-28T22:33:37.119Z,8.80
2023-01-28T22:36:09.410Z,9.37
2023-01-28T22:38:36.924Z,9.60
2023-01-28T22:41:06.387Z,9.63
2023-01-28T22:43:33.172Z,9.30
2023-01-28T22:46:00.623Z,9.40
2023-01-28T22:48:27.491Z,9.90
2023-01-28T22:50:54.426Z,10.27
2023-01-28T22:53:21.186Z,10.20
2023-01-28T22:55:51.254Z,9.90
2023-01-28T22:58:18.007Z,9.93
2023-01-28T23:00:44.716Z,10.00
2023-01-28T23:03:11.455Z,9.20
2023-01-28T23:05:38.530Z,9.70
2023-01-28T23:08:11.691Z,9.60
2023-01-28T23:10:41.012Z,9.50
2023-01-28T23:13:07.988Z,9.63
2023-01-28T23:15:53.403Z,9.23
2023-01-28T23:18:48.463Z,9.40
2023-01-28T23:21:45.941Z,9.37
2023-01-28T23:24:21.411Z,8.63
2023-01-28T23:26:56.821Z,8.73
2023-01-28T23:29:25.785Z,9.37
2023-01-28T23:31:55.694Z,8.90
2023-01-28T23:34:23.248Z,9.10
2023-01-28T23:36:50.589Z,8.80
2023-01-28T23:39:17.365Z,9.87
2023-01-28T23:41:44.145Z,9.13
2023-01-28T23:44:10.936Z,10.00
2023-01-28T23:46:40.250Z,9.93
2023-01-28T23:49:09.863Z,9.70
2023-01-28T23:51:38.607Z,9.57
2023-01-28T23:54:06.364Z,9.67
2023-01-28T23:56:35.004Z,9.57
2023-01-28T23:59:05.020Z,10.00
